Pagrindinis puslapis
METAR-TAF:

METAR-TAF

Oro uostai :

Vasa, Suomija

platuma: 63-03N, ilguma: 021-46E, Aukštis: 4 m

Dabartinis oras

Ataskaita buvo paskelbta 25 minutes, ne 06:20 UTC
Vėjas 4 kt iš Šiaurės Vakarų, svyruoja nuo Pietvakarių ir Šiaurės
Temperatūra 2°C
Drėgmė 55%
Slėgis 1017 hPa
Matomumas 10 km arba daugiau
nėra debesų žemiau 1500 m ir nėra kamuolinių lietaus debesų

METAR: EFVA 100620Z AUTO 31004KT 230V010 CAVOK 02/M06 Q1017

Laikas: 09:45 (06:45 UTC)

Prognozė

Ataskaita buvo paskelbta 1 valandą ir 21 minutes, ne 05:24 UTC
Prognozė galioja nuo 10 metu 06 UTC su 11 metu 06 UTC
Vėjas 8 kt iš Vakarų/Šiaurės Vakarų
Matomumas 10 km arba daugiau
nėra debesų žemiau 1500 m ir nėra kamuolinių lietaus debesų
Tikimybė 40% :
Laikinai
nuo 10 metu 10 UTC su 10 metu 14 UTC
Matomumas: 4000 m
Išsisklaidę debesys ne aukštis 4000 ft, Liūtiniai kamuoliniai debesys.
sniegas

TAF: EFVA 100524Z 1006/1106 30008KT CAVOK PROB40 TEMPO 1010/1014 4000 -SHSN SCT040CB

Orai ataskaitas ir orų prognozės (METAR, TAF).

turimą stotys yra geltonos ir raudonos taškus žemėlapyje.

Perkelti pele per norėdami pamatyti stoties vardą.

Tada spustelėkite, norėdami matyti oro stebėjimo ir prognozės.

Norėdami pakeisti žemėlapį: spustelėkite ant žalios mygtukų su juodo kryžiaus žemyn,; žalią mygtuką su brūkšneliu, jei norite nutolinti; arba žalių rodyklių gretimoms žemėlapius.


METAR-TAF: